Terminal Aerodrome Forecast
Issued by NWS

Home | Current Version | Previous Version | Text Only | Print | Product List | Glossary On
Versions: 1 2 3 4 5 6 7 8 9 10 11 12 13 14 15 16 17 18 19 20 21 22 23 24
000
FTUS43 KILX 232200 AAC
TAFCMI
TAF AMD
KCMI 232208Z 2322/2418 13012G17KT 3SM -RA BR OVC006
      TEMPO 2322/2402 1 1/2SM RA BR OVC003
     FM240200 17012KT 2SM SHRA BR OVC004
     FM240800 21012KT 4SM -SHRA BR OVC004
     FM241100 23016G23KT 4SM BR VCSH OVC007
     FM241600 25022G32KT 2SM -RASN BR OVC012=

USA.gov is the U.S. government's official web portal to all federal, state and local government web resources and services.